sensor_id;sensor_type;location;lat;lon;timestamp;pressure;altitude;pressure_sealevel;temperature;humidity
706;BME280;21234;48.690;9.016;2023-05-10T00:00:34;95505.09;;;12.90;100.00
706;BME280;21234;48.690;9.016;2023-05-10T00:03:00;95506.19;;;12.89;100.00
706;BME280;21234;48.690;9.016;2023-05-10T00:05:29;95519.06;;;12.83;100.00
706;BME280;21234;48.690;9.016;2023-05-10T00:07:56;95519.06;;;12.83;100.00
706;BME280;21234;48.690;9.016;2023-05-10T00:10:23;95511.44;;;12.80;100.00
706;BME280;21234;48.690;9.016;2023-05-10T00:12:51;95514.72;;;12.77;100.00
706;BME280;21234;48.690;9.016;2023-05-10T00:15:19;95511.19;;;12.71;100.00
706;BME280;21234;48.690;9.016;2023-05-10T00:17:46;95513.47;;;12.59;100.00
706;BME280;21234;48.690;9.016;2023-05-10T00:20:12;95517.59;;;12.52;100.00
706;BME280;21234;48.690;9.016;2023-05-10T00:22:41;95526.06;;;12.45;100.00
706;BME280;21234;48.690;9.016;2023-05-10T00:25:08;95527.16;;;12.49;100.00
706;BME280;21234;48.690;9.016;2023-05-10T00:27:35;95528.56;;;12.36;100.00
706;BME280;21234;48.690;9.016;2023-05-10T00:30:02;95527.72;;;12.41;100.00
706;BME280;21234;48.690;9.016;2023-05-10T00:32:31;95530.50;;;12.31;100.00
706;BME280;21234;48.690;9.016;2023-05-10T00:34:57;95528.84;;;12.35;100.00
706;BME280;21234;48.690;9.016;2023-05-10T00:37:24;95530.00;;;12.24;100.00
706;BME280;21234;48.690;9.016;2023-05-10T00:39:51;95534.09;;;12.16;100.00
706;BME280;21234;48.690;9.016;2023-05-10T00:42:18;95536.00;;;12.16;100.00
706;BME280;21234;48.690;9.016;2023-05-10T00:44:45;95534.13;;;12.11;100.00
706;BME280;21234;48.690;9.016;2023-05-10T00:47:15;95545.00;;;12.11;100.00
706;BME280;21234;48.690;9.016;2023-05-10T00:49:44;95542.28;;;12.11;100.00
706;BME280;21234;48.690;9.016;2023-05-10T00:52:12;95541.19;;;12.07;100.00
706;BME280;21234;48.690;9.016;2023-05-10T00:54:39;95548.56;;;12.06;100.00
706;BME280;21234;48.690;9.016;2023-05-10T00:57:08;95547.75;;;12.06;100.00
706;BME280;21234;48.690;9.016;2023-05-10T00:59:35;95539.63;;;12.01;100.00
706;BME280;21234;48.690;9.016;2023-05-10T01:02:02;95544.81;;;11.92;100.00
706;BME280;21234;48.690;9.016;2023-05-10T01:04:29;95545.34;;;11.89;100.00
706;BME280;21234;48.690;9.016;2023-05-10T01:06:59;95548.88;;;11.95;100.00
706;BME280;21234;48.690;9.016;2023-05-10T01:09:26;95545.88;;;11.96;100.00
706;BME280;21234;48.690;9.016;2023-05-10T01:11:54;95550.78;;;11.94;100.00
706;BME280;21234;48.690;9.016;2023-05-10T01:14:21;95544.25;;;11.90;100.00
706;BME280;21234;48.690;9.016;2023-05-10T01:16:49;95543.44;;;11.85;100.00
706;BME280;21234;48.690;9.016;2023-05-10T01:19:21;95553.25;;;11.86;100.00
706;BME280;21234;48.690;9.016;2023-05-10T01:21:53;95553.81;;;11.83;100.00
706;BME280;21234;48.690;9.016;2023-05-10T01:24:52;95555.72;;;11.82;100.00
706;BME280;21234;48.690;9.016;2023-05-10T01:33:38;95560.63;;;11.80;100.00
706;BME280;21234;48.690;9.016;2023-05-10T01:36:12;95564.94;;;11.76;100.00
706;BME280;21234;48.690;9.016;2023-05-10T01:38:47;95564.16;;;11.81;100.00
706;BME280;21234;48.690;9.016;2023-05-10T01:41:18;95567.13;;;11.74;100.00
706;BME280;21234;48.690;9.016;2023-05-10T01:43:52;95570.66;;;11.74;100.00
706;BME280;21234;48.690;9.016;2023-05-10T01:46:27;95570.69;;;11.69;100.00
706;BME280;21234;48.690;9.016;2023-05-10T01:48:57;95575.31;;;11.69;100.00
706;BME280;21234;48.690;9.016;2023-05-10T01:51:29;95572.59;;;11.69;100.00
706;BME280;21234;48.690;9.016;2023-05-10T01:54:01;95577.75;;;11.70;100.00
706;BME280;21234;48.690;9.016;2023-05-10T01:56:31;95580.50;;;11.65;100.00
706;BME280;21234;48.690;9.016;2023-05-10T01:58:59;95580.22;;;11.67;100.00
706;BME280;21234;48.690;9.016;2023-05-10T02:01:27;95583.75;;;11.67;100.00
706;BME280;21234;48.690;9.016;2023-05-10T02:03:56;95584.56;;;11.63;100.00
706;BME280;21234;48.690;9.016;2023-05-10T02:06:25;95587.84;;;11.60;100.00
706;BME280;21234;48.690;9.016;2023-05-10T02:08:53;95591.66;;;11.59;100.00
706;BME280;21234;48.690;9.016;2023-05-10T02:11:21;95594.38;;;11.59;100.00
706;BME280;21234;48.690;9.016;2023-05-10T02:13:50;95584.31;;;11.54;100.00
706;BME280;21234;48.690;9.016;2023-05-10T02:16:18;95591.66;;;11.54;100.00
706;BME280;21234;48.690;9.016;2023-05-10T02:18:48;95595.47;;;11.53;100.00
706;BME280;21234;48.690;9.016;2023-05-10T02:21:17;95595.47;;;11.58;100.00
706;BME280;21234;48.690;9.016;2023-05-10T02:23:44;95596.53;;;11.52;100.00
706;BME280;21234;48.690;9.016;2023-05-10T02:26:12;95601.72;;;11.53;100.00
706;BME280;21234;48.690;9.016;2023-05-10T02:28:40;95603.91;;;11.51;100.00
706;BME280;21234;48.690;9.016;2023-05-10T02:31:09;95609.59;;;11.44;100.00
706;BME280;21234;48.690;9.016;2023-05-10T02:33:37;95606.88;;;11.50;100.00
706;BME280;21234;48.690;9.016;2023-05-10T02:36:07;95608.25;;;11.57;100.00
706;BME280;21234;48.690;9.016;2023-05-10T02:38:37;95612.88;;;11.62;100.00
706;BME280;21234;48.690;9.016;2023-05-10T02:41:04;95613.69;;;11.62;100.00
706;BME280;21234;48.690;9.016;2023-05-10T02:43:32;95611.81;;;11.63;100.00
706;BME280;21234;48.690;9.016;2023-05-10T02:45:59;95616.44;;;11.62;100.00
706;BME280;21234;48.690;9.016;2023-05-10T02:48:27;95603.38;;;11.69;100.00
706;BME280;21234;48.690;9.016;2023-05-10T02:50:56;95610.97;;;11.67;100.00
706;BME280;21234;48.690;9.016;2023-05-10T02:53:31;95612.63;;;11.63;100.00
706;BME280;21234;48.690;9.016;2023-05-10T02:56:03;95608.50;;;11.71;100.00
706;BME280;21234;48.690;9.016;2023-05-10T02:58:32;95607.19;;;11.68;100.00
706;BME280;21234;48.690;9.016;2023-05-10T03:00:59;95617.25;;;11.68;100.00
706;BME280;21234;48.690;9.016;2023-05-10T03:03:26;95611.53;;;11.64;100.00
706;BME280;21234;48.690;9.016;2023-05-10T03:05:55;95615.59;;;11.62;100.00
706;BME280;21234;48.690;9.016;2023-05-10T03:08:23;95614.53;;;11.63;100.00
706;BME280;21234;48.690;9.016;2023-05-10T03:10:58;95614.78;;;11.66;100.00
706;BME280;21234;48.690;9.016;2023-05-10T03:13:36;95610.44;;;11.65;100.00
706;BME280;21234;48.690;9.016;2023-05-10T03:16:08;95618.06;;;11.63;100.00
706;BME280;21234;48.690;9.016;2023-05-10T03:18:40;95607.72;;;11.65;100.00
706;BME280;21234;48.690;9.016;2023-05-10T03:21:11;95619.97;;;11.68;100.00
706;BME280;21234;48.690;9.016;2023-05-10T03:23:41;95610.44;;;11.65;100.00
706;BME280;21234;48.690;9.016;2023-05-10T03:26:09;95613.44;;;11.69;100.00
706;BME280;21234;48.690;9.016;2023-05-10T03:28:41;95619.41;;;11.71;100.00
706;BME280;21234;48.690;9.016;2023-05-10T03:31:08;95621.88;;;11.67;100.00
706;BME280;21234;48.690;9.016;2023-05-10T03:33:35;95627.03;;;11.64;100.00
706;BME280;21234;48.690;9.016;2023-05-10T03:36:11;95623.75;;;11.72;100.00
706;BME280;21234;48.690;9.016;2023-05-10T03:38:38;95628.69;;;11.65;100.00
706;BME280;21234;48.690;9.016;2023-05-10T03:41:05;95628.13;;;11.68;100.00
706;BME280;21234;48.690;9.016;2023-05-10T03:43:32;95635.75;;;11.66;100.00
706;BME280;21234;48.690;9.016;2023-05-10T03:46:01;95635.75;;;11.66;100.00
706;BME280;21234;48.690;9.016;2023-05-10T03:48:29;95640.66;;;11.64;100.00
706;BME280;21234;48.690;9.016;2023-05-10T03:50:55;95638.22;;;11.62;100.00
706;BME280;21234;48.690;9.016;2023-05-10T03:53:24;95637.91;;;11.49;100.00
706;BME280;21234;48.690;9.016;2023-05-10T03:55:52;95642.28;;;11.50;100.00
706;BME280;21234;48.690;9.016;2023-05-10T03:58:18;95644.19;;;11.49;100.00
706;BME280;21234;48.690;9.016;2023-05-10T04:00:45;95639.81;;;11.48;100.00
706;BME280;21234;48.690;9.016;2023-05-10T04:03:14;95643.63;;;11.52;100.00
706;BME280;21234;48.690;9.016;2023-05-10T04:05:40;95631.94;;;11.52;100.00
706;BME280;21234;48.690;9.016;2023-05-10T04:08:08;95631.66;;;11.53;100.00
706;BME280;21234;48.690;9.016;2023-05-10T04:10:35;95636.56;;;11.56;100.00
706;BME280;21234;48.690;9.016;2023-05-10T04:13:02;95631.13;;;11.51;100.00
706;BME280;21234;48.690;9.016;2023-05-10T04:15:28;95638.75;;;11.54;100.00
706;BME280;21234;48.690;9.016;2023-05-10T04:17:55;95644.72;;;11.51;100.00
706;BME280;21234;48.690;9.016;2023-05-10T04:20:23;95643.91;;;11.56;100.00
706;BME280;21234;48.690;9.016;2023-05-10T04:22:51;95640.66;;;11.64;100.00
706;BME280;21234;48.690;9.016;2023-05-10T04:25:18;95632.50;;;11.64;100.00
706;BME280;21234;48.690;9.016;2023-05-10T04:27:44;95643.91;;;11.61;100.00
706;BME280;21234;48.690;9.016;2023-05-10T04:30:11;95646.38;;;11.57;100.00
706;BME280;21234;48.690;9.016;2023-05-10T04:32:38;95640.66;;;11.59;100.00
706;BME280;21234;48.690;9.016;2023-05-10T04:35:06;95640.38;;;11.60;100.00
706;BME280;21234;48.690;9.016;2023-05-10T04:37:35;95645.84;;;11.65;100.00
706;BME280;21234;48.690;9.016;2023-05-10T04:40:02;95645.28;;;11.63;100.00
706;BME280;21234;48.690;9.016;2023-05-10T04:42:29;95649.63;;;11.64;100.00
706;BME280;21234;48.690;9.016;2023-05-10T04:44:56;95647.19;;;11.63;100.00
706;BME280;21234;48.690;9.016;2023-05-10T04:47:23;95647.72;;;11.60;100.00
706;BME280;21234;48.690;9.016;2023-05-10T04:49:50;95652.91;;;11.56;100.00
706;BME280;21234;48.690;9.016;2023-05-10T04:52:16;95650.72;;;11.58;100.00
706;BME280;21234;48.690;9.016;2023-05-10T04:54:45;95654.00;;;11.65;100.00
706;BME280;21234;48.690;9.016;2023-05-10T04:57:12;95648.81;;;11.64;100.00
706;BME280;21234;48.690;9.016;2023-05-10T04:59:39;95652.88;;;11.71;100.00
706;BME280;21234;48.690;9.016;2023-05-10T05:02:06;95652.06;;;11.76;100.00
706;BME280;21234;48.690;9.016;2023-05-10T05:04:32;95659.19;;;11.82;100.00
706;BME280;21234;48.690;9.016;2023-05-10T05:06:59;95658.38;;;11.76;100.00
706;BME280;21234;48.690;9.016;2023-05-10T05:09:26;95665.19;;;11.79;100.00
706;BME280;21234;48.690;9.016;2023-05-10T05:11:54;95659.16;;;11.72;100.00
706;BME280;21234;48.690;9.016;2023-05-10T05:14:21;95658.38;;;11.76;100.00
706;BME280;21234;48.690;9.016;2023-05-10T05:16:47;95673.03;;;11.75;100.00
706;BME280;21234;48.690;9.016;2023-05-10T05:19:14;95667.09;;;11.78;100.00
706;BME280;21234;48.690;9.016;2023-05-10T05:21:41;95673.09;;;11.91;100.00
706;BME280;21234;48.690;9.016;2023-05-10T05:24:07;95669.00;;;11.88;100.00
706;BME280;21234;48.690;9.016;2023-05-10T05:26:35;95667.63;;;11.86;100.00
706;BME280;21234;48.690;9.016;2023-05-10T05:29:03;95672.53;;;11.84;100.00
706;BME280;21234;48.690;9.016;2023-05-10T05:31:30;95668.44;;;11.86;100.00
706;BME280;21234;48.690;9.016;2023-05-10T05:33:57;95677.44;;;11.92;100.00
706;BME280;21234;48.690;9.016;2023-05-10T05:36:23;95673.34;;;11.84;100.00
706;BME280;21234;48.690;9.016;2023-05-10T05:38:51;95685.06;;;12.00;100.00
706;BME280;21234;48.690;9.016;2023-05-10T05:41:18;95679.63;;;11.90;100.00
706;BME280;21234;48.690;9.016;2023-05-10T05:43:45;95679.91;;;11.93;100.00
706;BME280;21234;48.690;9.016;2023-05-10T05:46:13;95681.00;;;11.97;100.00
706;BME280;21234;48.690;9.016;2023-05-10T05:48:40;95682.59;;;12.03;100.00
706;BME280;21234;48.690;9.016;2023-05-10T05:51:07;95681.22;;;12.06;100.00
706;BME280;21234;48.690;9.016;2023-05-10T05:53:34;95685.31;;;12.08;100.00
706;BME280;21234;48.690;9.016;2023-05-10T05:56:00;95686.94;;;12.09;100.00
706;BME280;21234;48.690;9.016;2023-05-10T05:58:28;95682.59;;;12.08;100.00
706;BME280;21234;48.690;9.016;2023-05-10T06:00:55;95696.22;;;12.08;100.00
706;BME280;21234;48.690;9.016;2023-05-10T06:03:24;95697.84;;;12.15;100.00
706;BME280;21234;48.690;9.016;2023-05-10T06:05:50;95700.84;;;12.18;100.00
706;BME280;21234;48.690;9.016;2023-05-10T06:08:18;95703.31;;;12.15;100.00
706;BME280;21234;48.690;9.016;2023-05-10T06:10:45;95709.84;;;12.24;100.00
706;BME280;21234;48.690;9.016;2023-05-10T06:13:12;95709.03;;;12.23;100.00
706;BME280;21234;48.690;9.016;2023-05-10T06:15:39;95710.94;;;12.28;100.00
706;BME280;21234;48.690;9.016;2023-05-10T06:18:06;95712.56;;;12.24;100.00
706;BME280;21234;48.690;9.016;2023-05-10T06:20:34;95710.38;;;12.21;100.00
706;BME280;21234;48.690;9.016;2023-05-10T06:23:00;95716.38;;;12.23;100.00
706;BME280;21234;48.690;9.016;2023-05-10T06:25:27;95715.03;;;12.25;100.00
706;BME280;21234;48.690;9.016;2023-05-10T06:27:54;95713.94;;;12.26;100.00
706;BME280;21234;48.690;9.016;2023-05-10T06:30:24;95722.38;;;12.30;100.00
706;BME280;21234;48.690;9.016;2023-05-10T06:32:53;95720.47;;;12.25;100.00
706;BME280;21234;48.690;9.016;2023-05-10T06:35:20;95722.94;;;12.27;100.00
706;BME280;21234;48.690;9.016;2023-05-10T06:37:49;95732.75;;;12.28;100.00
706;BME280;21234;48.690;9.016;2023-05-10T06:40:18;95728.66;;;12.25;100.00
706;BME280;21234;48.690;9.016;2023-05-10T06:42:45;95732.19;;;12.26;100.00
706;BME280;21234;48.690;9.016;2023-05-10T06:45:12;95732.47;;;12.29;100.00
706;BME280;21234;48.690;9.016;2023-05-10T06:47:39;95732.75;;;12.28;100.00
706;BME280;21234;48.690;9.016;2023-05-10T06:50:06;95725.66;;;12.32;100.00
706;BME280;21234;48.690;9.016;2023-05-10T06:52:33;95733.25;;;12.35;100.00
706;BME280;21234;48.690;9.016;2023-05-10T06:55:03;95733.78;;;12.37;100.00
706;BME280;21234;48.690;9.016;2023-05-10T06:57:30;95732.16;;;12.41;100.00
706;BME280;21234;48.690;9.016;2023-05-10T06:59:56;95728.06;;;12.43;100.00
706;BME280;21234;48.690;9.016;2023-05-10T07:02:25;95730.25;;;12.52;100.00
706;BME280;21234;48.690;9.016;2023-05-10T07:04:52;95729.41;;;12.61;100.00
706;BME280;21234;48.690;9.016;2023-05-10T07:07:19;95723.69;;;12.63;100.00
706;BME280;21234;48.690;9.016;2023-05-10T07:09:46;95722.03;;;12.67;100.00
706;BME280;21234;48.690;9.016;2023-05-10T07:12:14;95719.00;;;12.78;100.00
706;BME280;21234;48.690;9.016;2023-05-10T07:14:40;95732.34;;;12.80;100.00
706;BME280;21234;48.690;9.016;2023-05-10T07:17:07;95729.34;;;12.87;100.00
706;BME280;21234;48.690;9.016;2023-05-10T07:19:34;95730.69;;;12.89;100.00
706;BME280;21234;48.690;9.016;2023-05-10T07:22:01;95732.03;;;12.97;100.00
706;BME280;21234;48.690;9.016;2023-05-10T07:24:27;95723.28;;;13.00;100.00
706;BME280;21234;48.690;9.016;2023-05-10T07:26:55;95727.63;;;13.01;100.00
706;BME280;21234;48.690;9.016;2023-05-10T07:29:23;95732.53;;;13.04;100.00
706;BME280;21234;48.690;9.016;2023-05-10T07:31:49;95730.69;;;12.99;100.00
706;BME280;21234;48.690;9.016;2023-05-10T07:34:16;95738.03;;;12.99;100.00
706;BME280;21234;48.690;9.016;2023-05-10T07:36:43;95733.09;;;13.01;100.00
706;BME280;21234;48.690;9.016;2023-05-10T07:39:10;95737.19;;;13.03;100.00
706;BME280;21234;48.690;9.016;2023-05-10T07:41:37;95737.19;;;13.03;100.00
706;BME280;21234;48.690;9.016;2023-05-10T07:44:06;95735.25;;;13.14;100.00
706;BME280;21234;48.690;9.016;2023-05-10T07:46:34;95735.53;;;13.12;100.00
706;BME280;21234;48.690;9.016;2023-05-10T07:49:00;95741.28;;;13.16;100.00
706;BME280;21234;48.690;9.016;2023-05-10T07:51:27;95745.34;;;13.19;100.00
706;BME280;21234;48.690;9.016;2023-05-10T07:53:54;95750.81;;;13.19;100.00
706;BME280;21234;48.690;9.016;2023-05-10T07:56:23;95738.53;;;13.16;100.00
706;BME280;21234;48.690;9.016;2023-05-10T07:58:50;95742.88;;;13.12;100.00
706;BME280;21234;48.690;9.016;2023-05-10T08:01:17;95746.44;;;13.12;100.00
706;BME280;21234;48.690;9.016;2023-05-10T08:03:45;95742.91;;;13.17;100.00
706;BME280;21234;48.690;9.016;2023-05-10T08:06:12;95747.53;;;13.22;100.00
706;BME280;21234;48.690;9.016;2023-05-10T08:08:40;95750.53;;;13.25;100.00
706;BME280;21234;48.690;9.016;2023-05-10T08:11:06;95752.97;;;13.32;100.00
706;BME280;21234;48.690;9.016;2023-05-10T08:13:33;95757.00;;;13.39;100.00
706;BME280;21234;48.690;9.016;2023-05-10T08:16:00;95755.34;;;13.38;100.00
706;BME280;21234;48.690;9.016;2023-05-10T08:18:26;95756.69;;;13.46;100.00
706;BME280;21234;48.690;9.016;2023-05-10T08:20:54;95763.81;;;13.42;100.00
706;BME280;21234;48.690;9.016;2023-05-10T08:23:21;95757.50;;;13.47;100.00
706;BME280;21234;48.690;9.016;2023-05-10T08:25:48;95757.25;;;13.43;100.00
706;BME280;21234;48.690;9.016;2023-05-10T08:28:14;95761.31;;;13.51;100.00
706;BME280;21234;48.690;9.016;2023-05-10T08:30:41;95764.06;;;13.45;100.00
706;BME280;21234;48.690;9.016;2023-05-10T08:33:08;95766.00;;;13.40;100.00
706;BME280;21234;48.690;9.016;2023-05-10T08:35:34;95779.38;;;13.36;100.00
706;BME280;21234;48.690;9.016;2023-05-10T08:38:03;95776.66;;;13.36;99.79
706;BME280;21234;48.690;9.016;2023-05-10T08:40:29;95772.34;;;13.30;100.00
706;BME280;21234;48.690;9.016;2023-05-10T08:43:00;95774.72;;;13.42;100.00
706;BME280;21234;48.690;9.016;2023-05-10T08:45:32;95770.31;;;13.51;100.00
706;BME280;21234;48.690;9.016;2023-05-10T08:48:01;95777.09;;;13.64;100.00
706;BME280;21234;48.690;9.016;2023-05-10T08:50:29;95784.13;;;13.75;97.58
706;BME280;21234;48.690;9.016;2023-05-10T08:53:00;95785.44;;;13.88;100.00
706;BME280;21234;48.690;9.016;2023-05-10T08:55:28;95792.28;;;13.80;95.80
706;BME280;21234;48.690;9.016;2023-05-10T08:57:55;95794.75;;;13.76;97.30
706;BME280;21234;48.690;9.016;2023-05-10T09:00:22;95796.53;;;13.57;93.24
706;BME280;21234;48.690;9.016;2023-05-10T09:02:49;95794.88;;;13.56;95.87
706;BME280;21234;48.690;9.016;2023-05-10T09:05:16;95797.38;;;13.48;94.27
706;BME280;21234;48.690;9.016;2023-05-10T09:07:43;95797.34;;;13.53;90.27
706;BME280;21234;48.690;9.016;2023-05-10T09:10:11;95794.63;;;13.48;92.42
706;BME280;21234;48.690;9.016;2023-05-10T09:12:40;95795.44;;;13.53;92.47
706;BME280;21234;48.690;9.016;2023-05-10T09:15:10;95794.06;;;13.56;96.46
706;BME280;21234;48.690;9.016;2023-05-10T09:17:38;95797.88;;;13.60;97.52
706;BME280;21234;48.690;9.016;2023-05-10T09:20:07;95800.03;;;13.63;96.37
706;BME280;21234;48.690;9.016;2023-05-10T09:22:34;95799.53;;;13.56;93.00
706;BME280;21234;48.690;9.016;2023-05-10T09:25:05;95802.28;;;13.45;96.64
706;BME280;21234;48.690;9.016;2023-05-10T09:27:34;95797.38;;;13.48;95.77
706;BME280;21234;48.690;9.016;2023-05-10T09:30:04;95797.91;;;13.55;97.51
706;BME280;21234;48.690;9.016;2023-05-10T09:32:38;95797.59;;;13.61;95.77
706;BME280;21234;48.690;9.016;2023-05-10T09:35:09;95803.81;;;13.72;97.44
706;BME280;21234;48.690;9.016;2023-05-10T09:37:38;95801.56;;;13.84;93.41
706;BME280;21234;48.690;9.016;2023-05-10T09:40:07;95809.91;;;14.03;86.55
706;BME280;21234;48.690;9.016;2023-05-10T09:42:34;95808.47;;;14.16;81.06
706;BME280;21234;48.690;9.016;2023-05-10T09:45:04;95805.38;;;14.27;81.85
706;BME280;21234;48.690;9.016;2023-05-10T09:47:32;95802.69;;;14.22;85.74
706;BME280;21234;48.690;9.016;2023-05-10T09:49:59;95808.72;;;14.19;79.48
706;BME280;21234;48.690;9.016;2023-05-10T09:52:30;95802.31;;;14.34;88.47
706;BME280;21234;48.690;9.016;2023-05-10T09:54:57;95796.31;;;14.32;86.61
706;BME280;21234;48.690;9.016;2023-05-10T09:57:24;95799.00;;;14.37;80.11
706;BME280;21234;48.690;9.016;2023-05-10T09:59:52;95804.41;;;14.52;80.29
706;BME280;21234;48.690;9.016;2023-05-10T10:02:21;95799.31;;;14.69;81.41
706;BME280;21234;48.690;9.016;2023-05-10T10:04:49;95807.44;;;14.79;79.06
706;BME280;21234;48.690;9.016;2023-05-10T10:07:22;95810.38;;;14.88;79.49
706;BME280;21234;48.690;9.016;2023-05-10T10:09:50;95805.06;;;14.97;82.03
706;BME280;21234;48.690;9.016;2023-05-10T10:12:17;95808.38;;;15.23;77.66
706;BME280;21234;48.690;9.016;2023-05-10T10:14:45;95802.00;;;15.51;75.90
706;BME280;21234;48.690;9.016;2023-05-10T10:17:13;95798.16;;;15.76;76.04
706;BME280;21234;48.690;9.016;2023-05-10T10:19:42;95792.31;;;15.83;79.47
706;BME280;21234;48.690;9.016;2023-05-10T10:22:09;95797.94;;;15.72;69.21
706;BME280;21234;48.690;9.016;2023-05-10T10:24:38;95794.19;;;15.87;72.13
706;BME280;21234;48.690;9.016;2023-05-10T10:27:19;95790.41;;;15.83;69.30
706;BME280;21234;48.690;9.016;2023-05-10T10:29:56;95793.88;;;16.07;75.09
706;BME280;21234;48.690;9.016;2023-05-10T10:32:32;95792.16;;;16.30;75.81
706;BME280;21234;48.690;9.016;2023-05-10T10:35:04;95798.69;;;16.34;74.80
706;BME280;21234;48.690;9.016;2023-05-10T10:37:52;95800.63;;;16.15;75.80
706;BME280;21234;48.690;9.016;2023-05-10T10:40:26;95789.81;;;16.05;71.60
706;BME280;21234;48.690;9.016;2023-05-10T10:42:53;95799.56;;;15.50;67.89
706;BME280;21234;48.690;9.016;2023-05-10T10:45:20;95821.22;;;14.64;69.25
706;BME280;21234;48.690;9.016;2023-05-10T10:47:47;95822.78;;;13.97;70.14
706;BME280;21234;48.690;9.016;2023-05-10T10:50:16;95824.69;;;13.48;72.12
706;BME280;21234;48.690;9.016;2023-05-10T10:52:43;95837.88;;;13.20;72.59
706;BME280;21234;48.690;9.016;2023-05-10T10:55:11;95833.53;;;12.99;74.27
706;BME280;21234;48.690;9.016;2023-05-10T10:57:49;95832.44;;;12.90;79.14
706;BME280;21234;48.690;9.016;2023-05-10T11:00:28;95846.91;;;12.70;75.14
706;BME280;21234;48.690;9.016;2023-05-10T11:02:57;95838.47;;;12.46;77.32
706;BME280;21234;48.690;9.016;2023-05-10T11:05:38;95834.66;;;12.42;81.18
706;BME280;21234;48.690;9.016;2023-05-10T11:08:11;95840.66;;;12.49;82.74
706;BME280;21234;48.690;9.016;2023-05-10T11:10:39;95845.03;;;12.55;86.00
706;BME280;21234;48.690;9.016;2023-05-10T11:13:07;95839.03;;;12.63;87.11
706;BME280;21234;48.690;9.016;2023-05-10T11:15:35;95833.56;;;12.78;90.41
706;BME280;21234;48.690;9.016;2023-05-10T11:18:17;95842.28;;;12.91;86.44
706;BME280;21234;48.690;9.016;2023-05-10T11:20:50;95834.91;;;12.96;85.30
706;BME280;21234;48.690;9.016;2023-05-10T11:23:17;95845.56;;;12.88;79.87
706;BME280;21234;48.690;9.016;2023-05-10T11:25:45;95837.91;;;12.90;85.95
706;BME280;21234;48.690;9.016;2023-05-10T11:28:12;95843.91;;;12.97;87.59
706;BME280;21234;48.690;9.016;2023-05-10T11:30:40;95834.59;;;13.03;84.92
706;BME280;21234;48.690;9.016;2023-05-10T11:33:09;95835.41;;;13.03;83.52
706;BME280;21234;48.690;9.016;2023-05-10T11:35:40;95845.50;;;13.13;78.66
706;BME280;21234;48.690;9.016;2023-05-10T11:38:08;95846.06;;;13.20;79.97
706;BME280;21234;48.690;9.016;2023-05-10T11:40:36;95849.81;;;13.39;81.74
706;BME280;21234;48.690;9.016;2023-05-10T11:43:04;95855.81;;;13.47;78.04
706;BME280;21234;48.690;9.016;2023-05-10T11:45:32;95857.63;;;13.66;77.73
706;BME280;21234;48.690;9.016;2023-05-10T11:47:59;95856.59;;;13.57;76.72
706;BME280;21234;48.690;9.016;2023-05-10T11:50:27;95852.97;;;13.72;80.21
706;BME280;21234;48.690;9.016;2023-05-10T11:52:55;95850.47;;;13.81;78.30
706;BME280;21234;48.690;9.016;2023-05-10T11:55:24;95850.69;;;13.94;81.23
706;BME280;21234;48.690;9.016;2023-05-10T11:57:54;95851.63;;;14.19;80.00
706;BME280;21234;48.690;9.016;2023-05-10T12:00:21;95856.47;;;14.32;74.06
706;BME280;21234;48.690;9.016;2023-05-10T12:02:48;95856.47;;;14.32;72.50
706;BME280;21234;48.690;9.016;2023-05-10T12:05:15;95860.25;;;14.41;74.26
706;BME280;21234;48.690;9.016;2023-05-10T12:07:42;95850.84;;;14.57;70.28
706;BME280;21234;48.690;9.016;2023-05-10T12:10:10;95855.25;;;14.53;70.97
706;BME280;21234;48.690;9.016;2023-05-10T12:12:41;95865.34;;;14.58;74.15
706;BME280;21234;48.690;9.016;2023-05-10T12:15:17;95850.09;;;14.47;72.03
706;BME280;21234;48.690;9.016;2023-05-10T12:17:44;95849.56;;;14.39;73.75
706;BME280;21234;48.690;9.016;2023-05-10T12:20:18;95858.91;;;14.33;71.89
706;BME280;21234;48.690;9.016;2023-05-10T12:22:47;95855.06;;;14.34;76.81
706;BME280;21234;48.690;9.016;2023-05-10T12:25:13;95860.25;;;14.36;72.74
706;BME280;21234;48.690;9.016;2023-05-10T12:27:48;95864.34;;;14.38;70.33
706;BME280;21234;48.690;9.016;2023-05-10T12:30:19;95863.34;;;14.29;66.45
706;BME280;21234;48.690;9.016;2023-05-10T12:32:47;95868.50;;;14.31;71.74
706;BME280;21234;48.690;9.016;2023-05-10T12:35:13;95866.38;;;14.23;69.93
706;BME280;21234;48.690;9.016;2023-05-10T12:37:42;95866.44;;;14.12;68.26
706;BME280;21234;48.690;9.016;2023-05-10T12:40:10;95859.66;;;14.00;69.59
706;BME280;21234;48.690;9.016;2023-05-10T12:42:38;95864.56;;;14.03;69.06
706;BME280;21234;48.690;9.016;2023-05-10T12:45:09;95864.25;;;14.09;71.73
706;BME280;21234;48.690;9.016;2023-05-10T12:47:37;95857.09;;;14.19;74.81
706;BME280;21234;48.690;9.016;2023-05-10T12:50:05;95857.06;;;14.29;69.33
706;BME280;21234;48.690;9.016;2023-05-10T12:52:32;95858.91;;;14.33;65.39
706;BME280;21234;48.690;9.016;2023-05-10T12:54:59;95861.06;;;14.41;69.21
706;BME280;21234;48.690;9.016;2023-05-10T12:57:26;95852.00;;;14.51;69.34
706;BME280;21234;48.690;9.016;2023-05-10T12:59:53;95860.06;;;14.66;67.72
706;BME280;21234;48.690;9.016;2023-05-10T13:02:21;95858.81;;;14.54;64.38
706;BME280;21234;48.690;9.016;2023-05-10T13:04:50;95857.44;;;14.56;63.53
706;BME280;21234;48.690;9.016;2023-05-10T13:07:17;95854.66;;;14.61;64.44
706;BME280;21234;48.690;9.016;2023-05-10T13:09:44;95862.22;;;14.69;63.13
706;BME280;21234;48.690;9.016;2023-05-10T13:12:10;95862.56;;;14.63;60.70
706;BME280;21234;48.690;9.016;2023-05-10T13:14:37;95858.00;;;14.53;60.77
706;BME280;21234;48.690;9.016;2023-05-10T13:17:05;95862.09;;;14.56;62.44
706;BME280;21234;48.690;9.016;2023-05-10T13:19:34;95857.47;;;14.51;61.13
706;BME280;21234;48.690;9.016;2023-05-10T13:22:00;95860.19;;;14.51;65.79
706;BME280;21234;48.690;9.016;2023-05-10T13:24:27;95850.31;;;14.55;66.08
706;BME280;21234;48.690;9.016;2023-05-10T13:26:54;95857.69;;;14.60;62.04